BIRKCYFB

Guest
Details From BIRK - Reykjavik
To CYFB - Iqaluit
Flight Number -
Tags Generated
Created
Modified
Stats Distance 1,204 nm / 2,229 km
Max Altitude 0 ft / 0 m
Waypoints 3
Social Downloads 2
Likes 0
Share VATSIM

Download

Looking for another format? Having issues loading an existing format? Contact us
Advertisement - Login to hide

Notes

Generated

Route

BIRK YFB CYFB

ID Type Via Altitude Latitude Longitude Leg Dist Tot Dist Heading (true) Name
O BIRK APT - 0 ft / 0 m 64.12743˚ -21.94699˚ - 0 nm - -
YFB VOR - 0 ft / 0 m 63.74167˚ -68.47333˚ 1200 nm 1200 nm 290° / 248° FROBAY VOR
O CYFB APT - 0 ft / 0 m 63.76497˚ -68.57398˚ 3 nm 1203 nm 298° / 298° -

Altitude Profile

Advertisement - Login to hide

Weather


0- 5 10 15 20 25 30 35+ Temperature / ° C

Clouds and Precipitation
Forecast for 2018-05-27 12:00 UTC. Updated an hour ago

Ground ~20,000 ft ~40,000 ft Winds

BIRK

Details ICAO BIRK (RKV)
Name Reykjavik
Region Iceland
Timezone Atlantic/Reykjavik (UTC+0.0)
Stats Elevation 47 ft / 14 m (AMSL)
Location 64.129644° -21.940609°
Runways 3
Magnetic Variation 13.656° W

METAR

BIRK 271000Z 10002KT 9999 -DZ FEW013 OVC024 06/03 Q1018

Decode

TAF

TAF BIRK 270759Z 2709/2809 VRB02KT 9999 FEW017 BKN033 TX09/2716Z TN05/2807Z BECMG 2710/2712 03010KT 8000 RA BKN015 OVC027 BECMG 2714/2716 13017KT -RADZ BECMG 2719/2721 RA BECMG 2721/2724 13007KT TEMPO 2722/2806 5000 RADZ BR BKN008 OVC015 BECMG 2803/2806 30023KT BECMG 2806/2809 30013KT 9999 NSW SCT020 BKN050

Decode

Departure Runways

ID Width Length Bearing (true) Bearing (mag) Surface Threshold Offset Overrun Length
01 148 ft / 45 m 5,129 ft / 1,563 m 355.27° 8.93° Asphalt 262 ft / 80 m 0 ft / 0 m
06 98 ft / 30 m 2,800 ft / 853 m 46.35° 60.01° Asphalt 299 ft / 91 m 0 ft / 0 m
13 148 ft / 45 m 4,023 ft / 1,226 m 116.28° 129.94° Asphalt 0 ft / 0 m 0 ft / 0 m
19 148 ft / 45 m 5,129 ft / 1,563 m 175.27° 188.93° Asphalt 0 ft / 0 m 0 ft / 0 m
24 98 ft / 30 m 2,800 ft / 853 m 226.37° 240.03° Asphalt 0 ft / 0 m 0 ft / 0 m
31 148 ft / 45 m 4,023 ft / 1,226 m 296.30° 309.96° Asphalt 213 ft / 65 m 0 ft / 0 m

CYFB

Details ICAO CYFB (YFB)
Name Iqaluit
Region Canada
Timezone America/Iqaluit (UTC-4.0)
Stats Elevation 110 ft / 34 m (AMSL)
Location 63.756565° -68.556058°
Runways 1
Magnetic Variation 27.369° W

METAR

CYFB 271000Z 13005KT 30SM OVC021 M04/M08 A3013 RMK SC8 SLP206

Decode

TAF

TAF TAF CYFB 270541Z 2706/2806 32005KT P6SM BKN025 TEMPO 2706/2717 P6SM -SN OVC015 BECMG 2712/2714 15005KT FM271700 15010KT P6SM BKN015 OVC060 TEMPO 2717/2724 3SM -SN OVC012 RMK NXT FCST BY 271200Z

Decode

Destination Runways

ID Width Length Bearing (true) Bearing (mag) Surface Threshold Offset Overrun Length
17 200 ft / 61 m 8,605 ft / 2,623 m 135.58° 162.95° Asphalt 0 ft / 0 m 210 ft / 64 m
35 200 ft / 61 m 8,605 ft / 2,623 m 315.62° 342.99° Asphalt 0 ft / 0 m 243 ft / 74 m

Popular Alternatives